Time;durP1;ratioP1;P1;durP2;ratioP2;P2;SDS_P1;SDS_P2;PMS_P1;PMS_P2;Temp;Humidity;BMP_temperature;BMP_pressure;BME280_temperature;BME280_humidity;BME280_pressure;Samples;Min_cycle;Max_cycle;Signal;HPM_P1;HPM_P2
2022/01/05 00:00:07;;;;;;;5.45;1.38;;;2.20;99.90;;;;;;5126058;27;20051;-71
2022/01/05 00:02:35;;;;;;;6.55;1.40;;;2.40;99.90;;;;;;5131897;27;20379;-72
2022/01/05 00:05:01;;;;;;;4.25;1.17;;;2.50;99.90;;;;;;5135799;27;20043;-70
2022/01/05 00:07:26;;;;;;;3.55;1.15;;;2.90;99.90;;;;;;5119391;27;20049;-74
2022/01/05 00:09:52;;;;;;;6.80;1.58;;;2.50;99.90;;;;;;5119422;27;20042;-69
2022/01/05 00:12:18;;;;;;;5.53;1.40;;;2.50;99.90;;;;;;5102501;27;20503;-74
2022/01/05 00:14:44;;;;;;;5.40;1.10;;;2.50;99.90;;;;;;5135477;27;20049;-73
2022/01/05 00:17:09;;;;;;;6.60;1.73;;;2.60;99.90;;;;;;5115546;27;20039;-72
2022/01/05 00:19:36;;;;;;;9.05;1.50;;;2.50;99.90;;;;;;5081972;27;20084;-71
2022/01/05 00:22:02;;;;;;;4.88;1.15;;;2.50;99.90;;;;;;5095185;27;20043;-71
2022/01/05 00:24:28;;;;;;;5.55;1.20;;;2.50;99.90;;;;;;5127854;27;20051;-74
2022/01/05 00:26:54;;;;;;;3.88;1.27;;;2.40;99.90;;;;;;5135561;27;20154;-73
2022/01/05 00:29:20;;;;;;;11.52;1.20;;;3.00;99.90;;;;;;5136481;27;20046;-71
2022/01/05 00:31:46;;;;;;;6.75;1.45;;;2.30;99.90;;;;;;5135807;27;20042;-72
2022/01/05 00:34:12;;;;;;;4.07;1.48;;;2.50;99.90;;;;;;5118414;27;20429;-72
2022/01/05 00:36:39;;;;;;;7.43;1.45;;;2.20;99.90;;;;;;5135290;27;20050;-72
2022/01/05 00:39:05;;;;;;;7.22;1.30;;;2.10;99.90;;;;;;5118849;27;20047;-72
2022/01/05 00:41:30;;;;;;;4.47;1.20;;;2.20;99.90;;;;;;5136147;27;20119;-71
2022/01/05 00:43:56;;;;;;;9.00;1.40;;;2.10;99.90;;;;;;5118179;27;20070;-71
2022/01/05 00:46:22;;;;;;;7.88;1.33;;;2.50;99.90;;;;;;5118429;27;20122;-74
2022/01/05 00:48:48;;;;;;;8.25;1.88;;;2.40;99.90;;;;;;5118707;27;20152;-73
2022/01/05 00:51:16;;;;;;;7.00;1.63;;;2.20;99.90;;;;;;5135582;27;20478;-75
2022/01/05 00:53:42;;;;;;;13.43;2.05;;;2.40;99.90;;;;;;5117822;27;20179;-71
2022/01/05 00:56:08;;;;;;;5.22;1.45;;;2.80;99.90;;;;;;5134963;27;20034;-73
2022/01/05 00:58:34;;;;;;;4.32;1.30;;;2.60;99.90;;;;;;5134742;27;20481;-72
2022/01/05 01:01:00;;;;;;;8.60;1.52;;;2.30;99.90;;;;;;5135549;27;20038;-74
2022/01/05 01:03:28;;;;;;;7.53;1.80;;;2.60;99.90;;;;;;5118345;27;20045;-74
2022/01/05 01:05:58;;;;;;;6.13;2.10;;;2.60;99.90;;;;;;5135025;27;20114;-72
2022/01/05 01:08:24;;;;;;;6.30;1.25;;;2.60;99.90;;;;;;5135016;27;20062;-73
2022/01/05 01:10:50;;;;;;;9.25;1.25;;;2.50;99.90;;;;;;5134214;27;20163;-74
2022/01/05 01:13:17;;;;;;;8.25;1.73;;;2.30;99.90;;;;;;5133793;27;20035;-74
2022/01/05 01:15:51;;;;;;;9.13;1.98;;;2.50;99.90;;;;;;5133386;27;20053;-73
2022/01/05 01:18:17;;;;;;;7.28;1.30;;;2.40;99.90;;;;;;5134030;27;20095;-71
2022/01/05 01:20:43;;;;;;;13.85;2.40;;;2.30;99.90;;;;;;5134929;27;20459;-72
2022/01/05 01:23:10;;;;;;;8.07;1.67;;;2.30;99.90;;;;;;5117812;27;20460;-72
2022/01/05 01:25:36;;;;;;;9.60;3.20;;;2.50;99.90;;;;;;5135029;27;20039;-72
2022/01/05 01:28:02;;;;;;;5.53;1.38;;;2.60;99.90;;;;;;5134650;27;20043;-72
2022/01/05 01:30:31;;;;;;;9.23;2.72;;;2.50;99.90;;;;;;5135450;27;20057;-71
2022/01/05 01:32:57;;;;;;;8.95;1.73;;;2.60;99.90;;;;;;5134471;27;20039;-73
2022/01/05 01:35:23;;;;;;;13.70;1.90;;;2.60;99.90;;;;;;5134518;27;20065;-71
2022/01/05 01:37:49;;;;;;;10.57;1.98;;;2.70;99.90;;;;;;5134011;27;20034;-75
2022/01/05 01:40:15;;;;;;;13.82;2.00;;;2.60;99.90;;;;;;5135396;27;20142;-74
2022/01/05 01:42:40;;;;;;;8.90;1.80;;;2.70;99.90;;;;;;5134598;27;20542;-74
2022/01/05 01:45:06;;;;;;;12.05;2.60;;;2.70;99.90;;;;;;5117795;27;20061;-74
2022/01/05 01:47:32;;;;;;;7.60;1.88;;;2.70;99.90;;;;;;5121686;27;20559;-73
2022/01/05 01:49:58;;;;;;;10.48;2.70;;;2.70;99.90;;;;;;5117432;27;20117;-73
2022/01/05 01:52:23;;;;;;;10.95;2.17;;;3.10;99.90;;;;;;5134621;27;20034;-73
2022/01/05 01:54:51;;;;;;;10.10;1.88;;;2.80;99.90;;;;;;5117186;27;20053;-74
2022/01/05 01:57:18;;;;;;;9.38;2.38;;;2.80;99.90;;;;;;5134094;27;20039;-72
2022/01/05 01:59:45;;;;;;;9.35;1.85;;;2.90;99.90;;;;;;5133777;27;20080;-71
2022/01/05 02:02:10;;;;;;;7.57;1.83;;;2.90;99.90;;;;;;5134190;27;20031;-73
2022/01/05 02:04:39;;;;;;;11.73;2.30;;;2.80;99.90;;;;;;5134576;27;20607;-73
2022/01/05 02:07:04;;;;;;;8.32;1.73;;;2.80;99.90;;;;;;5100822;27;20038;-73
2022/01/05 02:09:30;;;;;;;8.35;1.50;;;2.80;99.90;;;;;;5134547;27;20720;-72
2022/01/05 02:11:56;;;;;;;9.43;2.15;;;2.90;99.90;;;;;;5133898;27;20123;-72
2022/01/05 02:14:22;;;;;;;7.70;1.80;;;2.90;99.90;;;;;;5134609;27;20138;-75
2022/01/05 02:16:47;;;;;;;9.13;2.58;;;2.80;99.90;;;;;;5116992;27;20122;-72
2022/01/05 02:19:14;;;;;;;17.08;2.75;;;2.90;99.90;;;;;;5133153;27;20030;-72
2022/01/05 02:21:42;;;;;;;7.43;1.48;;;2.90;99.90;;;;;;5133895;27;20045;-73
2022/01/05 02:24:08;;;;;;;4.80;1.40;;;2.80;99.90;;;;;;5132953;27;20045;-74
2022/01/05 02:26:34;;;;;;;7.68;1.90;;;2.90;99.90;;;;;;5133754;27;20402;-71
2022/01/05 02:29:01;;;;;;;14.90;2.67;;;3.60;99.90;;;;;;5099045;27;20176;-74
2022/01/05 02:31:27;;;;;;;11.52;2.17;;;2.60;99.90;;;;;;5134075;27;20446;-76
2022/01/05 02:33:53;;;;;;;6.88;1.40;;;2.60;99.90;;;;;;5116337;27;20083;-75
2022/01/05 02:36:20;;;;;;;12.57;1.90;;;2.70;99.90;;;;;;5116528;27;20042;-73
2022/01/05 02:38:48;;;;;;;14.95;3.35;;;3.10;99.90;;;;;;5133312;27;20075;-75
2022/01/05 02:41:14;;;;;;;8.02;2.15;;;2.70;99.90;;;;;;5152761;27;20729;-72
2022/01/05 02:43:42;;;;;;;10.40;1.95;;;2.70;99.90;;;;;;5116905;27;20226;-72
2022/01/05 02:46:12;;;;;;;13.57;2.30;;;2.60;99.90;;;;;;5116710;27;20464;-73
2022/01/05 02:48:39;;;;;;;8.35;2.20;;;2.80;99.90;;;;;;5133029;27;20027;-70
2022/01/05 02:51:06;;;;;;;9.05;1.73;;;2.80;99.90;;;;;;5129229;27;20127;-70
2022/01/05 02:53:32;;;;;;;10.27;1.85;;;2.70;99.90;;;;;;5116696;27;20034;-76
2022/01/05 02:55:58;;;;;;;9.60;2.17;;;2.80;99.90;;;;;;5131712;27;20035;-74
2022/01/05 02:58:24;;;;;;;5.53;1.70;;;3.30;99.90;;;;;;5133584;27;20038;-71
2022/01/05 03:00:51;;;;;;;6.47;2.22;;;2.70;99.90;;;;;;5132011;27;20051;-70
2022/01/05 03:03:16;;;;;;;15.43;2.10;;;2.70;99.90;;;;;;5132545;27;20049;-72
2022/01/05 03:05:42;;;;;;;12.00;2.75;;;2.80;99.90;;;;;;5133692;27;20042;-70
2022/01/05 03:08:08;;;;;;;8.80;2.05;;;2.90;99.90;;;;;;5132807;27;20137;-70
2022/01/05 03:10:34;;;;;;;11.07;3.10;;;2.80;99.90;;;;;;5112611;28;20134;-69
2022/01/05 03:13:00;;;;;;;15.52;2.55;;;2.80;99.90;;;;;;5127242;27;20493;-72
2022/01/05 03:15:26;;;;;;;7.70;1.90;;;3.00;99.90;;;;;;5095140;28;20122;-69
2022/01/05 03:17:51;;;;;;;11.70;1.77;;;3.10;99.90;;;;;;5106369;27;20069;-71
2022/01/05 03:20:17;;;;;;;7.50;2.20;;;3.20;99.90;;;;;;5131245;27;20030;-69
2022/01/05 03:22:44;;;;;;;14.70;2.10;;;3.60;99.90;;;;;;5115572;27;20631;-69
2022/01/05 03:25:18;;;;;;;13.25;2.80;;;3.40;99.90;;;;;;5132451;27;20498;-71
2022/01/05 03:27:45;;;;;;;10.00;2.30;;;3.60;99.90;;;;;;5132897;27;20125;-70
2022/01/05 03:30:14;;;;;;;8.90;2.13;;;3.90;99.90;;;;;;5132325;27;20034;-72
2022/01/05 03:33:25;;;;;;;8.63;2.22;;;4.00;99.90;;;;;;5132807;27;20035;-74
2022/01/05 03:35:29;;;;;;;10.55;1.90;;;3.70;99.90;;;;;;5118650;27;20539;-74
2022/01/05 03:37:55;;;;;;;8.13;1.80;;;3.70;99.90;;;;;;5136306;27;20038;-70
2022/01/05 03:40:23;;;;;;;11.20;2.05;;;3.70;99.90;;;;;;5137369;27;20111;-72
2022/01/05 03:42:49;;;;;;;10.52;2.28;;;3.70;99.90;;;;;;5137359;27;20039;-71
2022/01/05 03:45:15;;;;;;;8.93;2.20;;;3.80;99.90;;;;;;5136865;27;20053;-72
2022/01/05 03:47:41;;;;;;;10.07;1.90;;;3.90;99.90;;;;;;5137144;27;20125;-75
2022/01/05 03:50:08;;;;;;;9.30;1.67;;;3.90;99.90;;;;;;5136829;27;20054;-74
2022/01/05 03:52:34;;;;;;;13.68;2.08;;;3.80;99.90;;;;;;5135055;27;20074;-74
2022/01/05 03:54:59;;;;;;;10.48;2.42;;;3.80;99.90;;;;;;5136949;27;20089;-73
2022/01/05 03:57:25;;;;;;;10.13;2.25;;;3.80;99.90;;;;;;5119775;27;20043;-74
2022/01/05 03:59:52;;;;;;;7.63;1.73;;;3.70;99.90;;;;;;5136803;27;20058;-70
2022/01/05 04:02:18;;;;;;;5.63;2.20;;;3.80;99.90;;;;;;5136364;27;20045;-75
2022/01/05 04:04:45;;;;;;;11.15;2.45;;;3.60;99.90;;;;;;5119545;27;20039;-74
2022/01/05 04:07:12;;;;;;;7.47;2.38;;;3.70;99.90;;;;;;5119799;27;20107;-71
2022/01/05 04:09:37;;;;;;;9.38;1.80;;;4.00;99.90;;;;;;5119560;27;20409;-73
2022/01/05 04:12:03;;;;;;;6.18;1.77;;;3.60;99.90;;;;;;5118824;27;20057;-72
2022/01/05 04:14:29;;;;;;;8.02;1.70;;;3.70;99.90;;;;;;5119117;27;20103;-73
2022/01/05 04:16:55;;;;;;;7.20;1.67;;;3.70;99.90;;;;;;5136157;27;20428;-76
2022/01/05 04:19:21;;;;;;;10.43;2.22;;;3.80;99.90;;;;;;5115617;27;20046;-75
2022/01/05 04:21:46;;;;;;;12.60;2.25;;;3.80;99.90;;;;;;5122893;27;20027;-70
2022/01/05 04:24:12;;;;;;;10.93;1.88;;;4.10;99.90;;;;;;5135917;27;20038;-72
2022/01/05 04:26:38;;;;;;;5.88;1.48;;;3.80;99.90;;;;;;5119410;27;21542;-71
2022/01/05 04:29:03;;;;;;;5.38;1.50;;;3.90;99.90;;;;;;5135862;27;20550;-72
2022/01/05 04:31:29;;;;;;;8.45;1.58;;;3.80;99.90;;;;;;5119267;27;20046;-74
2022/01/05 04:33:54;;;;;;;5.43;1.42;;;3.80;99.90;;;;;;5118399;27;20039;-71
2022/01/05 04:36:20;;;;;;;10.93;1.80;;;4.20;99.90;;;;;;5136632;27;20039;-73
2022/01/05 04:38:46;;;;;;;5.10;1.27;;;3.90;99.90;;;;;;5135589;27;20043;-74
2022/01/05 04:41:11;;;;;;;6.95;1.45;;;4.30;99.90;;;;;;5118588;27;20431;-73
2022/01/05 04:43:37;;;;;;;8.18;1.77;;;3.50;99.90;;;;;;5135263;27;20084;-73
2022/01/05 04:46:03;;;;;;;5.63;1.80;;;3.70;99.90;;;;;;5135699;27;20118;-73
2022/01/05 04:48:29;;;;;;;4.70;1.25;;;3.70;99.90;;;;;;5118855;27;20045;-71
2022/01/05 04:50:55;;;;;;;5.45;1.58;;;3.60;99.90;;;;;;5135668;27;20523;-71
2022/01/05 04:53:21;;;;;;;7.43;1.90;;;3.50;99.90;;;;;;5134964;27;20066;-75
2022/01/05 04:55:47;;;;;;;9.95;2.30;;;3.70;99.90;;;;;;5115234;27;20400;-72
2022/01/05 04:58:12;;;;;;;8.88;1.60;;;3.60;99.90;;;;;;5114676;27;20080;-75
2022/01/05 05:00:38;;;;;;;5.88;1.60;;;3.50;99.90;;;;;;5124932;27;20041;-74
2022/01/05 05:03:04;;;;;;;13.25;1.90;;;3.50;99.90;;;;;;5118485;27;20038;-71
2022/01/05 05:05:30;;;;;;;12.90;1.90;;;3.80;99.90;;;;;;5135525;27;20035;-73
2022/01/05 05:07:57;;;;;;;8.07;2.22;;;3.70;99.90;;;;;;5135864;27;20050;-71
2022/01/05 05:10:23;;;;;;;10.85;1.58;;;3.70;99.90;;;;;;5114725;27;20122;-70
2022/01/05 05:12:49;;;;;;;6.25;1.30;;;4.10;99.90;;;;;;5115385;27;20050;-74
2022/01/05 05:15:15;;;;;;;6.50;1.60;;;3.70;99.90;;;;;;5114233;27;20371;-74
2022/01/05 05:17:41;;;;;;;11.00;2.63;;;3.60;99.90;;;;;;5110803;27;20043;-73
2022/01/05 05:20:07;;;;;;;9.07;1.98;;;3.80;99.90;;;;;;5102062;27;20035;-72
2022/01/05 05:22:35;;;;;;;17.23;2.28;;;3.70;99.90;;;;;;5100422;27;20060;-73
2022/01/05 05:25:04;;;;;;;12.85;2.40;;;4.00;99.90;;;;;;5084035;27;20038;-72
2022/01/05 05:27:30;;;;;;;14.30;2.47;;;3.90;99.90;;;;;;5081779;27;20035;-71
2022/01/05 05:29:56;;;;;;;13.02;1.95;;;3.90;99.90;;;;;;5124223;27;20514;-73
2022/01/05 05:32:22;;;;;;;12.13;2.40;;;3.90;99.90;;;;;;5117292;27;20041;-71
2022/01/05 05:34:48;;;;;;;8.77;2.22;;;4.10;99.90;;;;;;5118200;27;20125;-71
2022/01/05 05:37:16;;;;;;;12.20;2.60;;;4.20;99.90;;;;;;5100580;27;20042;-74
2022/01/05 05:39:43;;;;;;;10.25;2.28;;;4.30;99.90;;;;;;5134732;27;20117;-74
2022/01/05 05:42:11;;;;;;;12.07;1.77;;;4.30;99.90;;;;;;5152077;27;20062;-74
2022/01/05 05:44:37;;;;;;;9.38;1.80;;;4.40;99.90;;;;;;5117563;27;20035;-76
2022/01/05 05:47:05;;;;;;;10.88;2.13;;;4.30;99.90;;;;;;5134602;27;20039;-71
2022/01/05 05:49:31;;;;;;;13.30;2.10;;;4.20;99.90;;;;;;5134553;27;20042;-74
2022/01/05 05:51:57;;;;;;;9.77;1.70;;;4.40;99.90;;;;;;5134178;27;20043;-70
2022/01/05 05:54:23;;;;;;;4.22;1.50;;;4.60;99.90;;;;;;5116157;27;20121;-72
2022/01/05 05:56:48;;;;;;;4.38;1.42;;;4.50;99.90;;;;;;5134422;27;20126;-72
2022/01/05 05:59:14;;;;;;;14.23;1.88;;;4.00;99.90;;;;;;5116522;27;20046;-72
2022/01/05 06:01:40;;;;;;;10.20;2.13;;;3.90;99.90;;;;;;5100692;27;20074;-74
2022/01/05 06:04:06;;;;;;;11.23;2.20;;;4.20;99.90;;;;;;5117248;27;20050;-73
2022/01/05 06:06:31;;;;;;;11.18;2.20;;;4.40;99.90;;;;;;5134181;27;20042;-72
2022/01/05 06:08:57;;;;;;;9.65;1.77;;;4.10;99.90;;;;;;5134465;27;20410;-75
2022/01/05 06:11:23;;;;;;;7.03;1.55;;;4.40;99.90;;;;;;5116578;27;20673;-71
2022/01/05 06:13:50;;;;;;;14.43;2.55;;;4.70;99.90;;;;;;5084857;27;20464;-74
2022/01/05 06:16:16;;;;;;;6.45;1.58;;;4.30;99.90;;;;;;5113392;27;20070;-72
2022/01/05 06:18:42;;;;;;;9.07;2.20;;;4.50;99.90;;;;;;5115183;27;20090;-74
2022/01/05 06:21:07;;;;;;;9.55;1.95;;;4.40;99.90;;;;;;5132627;27;20121;-74
2022/01/05 06:23:33;;;;;;;10.23;2.00;;;4.90;99.90;;;;;;5133078;27;20039;-73
2022/01/05 06:25:59;;;;;;;8.20;1.83;;;4.90;99.90;;;;;;5117066;27;20148;-73
2022/01/05 06:28:25;;;;;;;6.30;1.50;;;5.10;99.90;;;;;;5116746;27;20038;-71
2022/01/05 06:30:50;;;;;;;11.13;2.10;;;4.50;99.90;;;;;;5133608;27;20038;-74
2022/01/05 06:33:16;;;;;;;6.65;2.00;;;5.00;99.90;;;;;;5115231;27;20039;-73
2022/01/05 06:35:42;;;;;;;14.57;1.85;;;4.70;99.90;;;;;;5116601;27;20412;-74
2022/01/05 06:38:07;;;;;;;9.88;1.60;;;4.90;99.90;;;;;;5116133;27;20395;-73
2022/01/05 06:40:33;;;;;;;7.20;2.35;;;4.70;99.90;;;;;;5134069;27;20027;-74
2022/01/05 06:43:00;;;;;;;8.35;1.73;;;5.20;99.90;;;;;;5115737;27;20046;-72
2022/01/05 06:45:26;;;;;;;8.30;1.65;;;4.80;99.90;;;;;;5133237;27;20095;-73
2022/01/05 06:47:52;;;;;;;11.27;2.30;;;5.00;99.90;;;;;;5116671;27;20039;-72
2022/01/05 06:50:18;;;;;;;8.77;2.42;;;5.70;99.90;;;;;;5133000;27;20111;-73
2022/01/05 06:52:44;;;;;;;10.70;2.47;;;5.10;99.90;;;;;;5133447;27;20648;-73
2022/01/05 06:55:10;;;;;;;11.10;2.60;;;5.20;99.90;;;;;;5131484;27;20046;-75
2022/01/05 06:57:39;;;;;;;17.65;2.50;;;5.70;99.90;;;;;;5133124;27;20046;-75
2022/01/05 07:00:06;;;;;;;11.43;2.00;;;5.50;99.90;;;;;;5095419;27;20054;-76
2022/01/05 07:02:31;;;;;;;12.50;2.50;;;5.80;99.90;;;;;;5079077;27;20116;-74
2022/01/05 07:04:57;;;;;;;10.88;1.70;;;5.30;99.90;;;;;;5108516;27;20039;-72
2022/01/05 07:07:23;;;;;;;14.60;2.20;;;5.80;99.90;;;;;;5114895;27;20050;-73
2022/01/05 07:09:48;;;;;;;14.48;2.33;;;5.40;99.90;;;;;;5126543;27;20047;-72
2022/01/05 07:12:14;;;;;;;6.90;2.03;;;5.40;99.90;;;;;;5129651;27;20049;-72
2022/01/05 07:14:40;;;;;;;9.45;2.15;;;5.70;99.90;;;;;;5125410;27;20129;-72
2022/01/05 07:17:05;;;;;;;12.43;2.10;;;5.90;99.90;;;;;;5128316;27;20118;-75
2022/01/05 07:19:31;;;;;;;11.73;2.08;;;5.40;99.90;;;;;;5118103;27;20126;-75
2022/01/05 07:21:57;;;;;;;8.65;1.95;;;5.50;99.90;;;;;;5117289;27;20054;-71
2022/01/05 07:24:22;;;;;;;4.57;1.25;;;5.80;99.90;;;;;;5117438;27;20420;-72
2022/01/05 07:26:48;;;;;;;6.00;2.08;;;5.40;99.90;;;;;;5097079;28;20043;-75
2022/01/05 07:29:16;;;;;;;4.50;1.55;;;5.50;99.90;;;;;;5104535;27;20034;-74
2022/01/05 07:31:42;;;;;;;7.05;1.30;;;5.70;99.90;;;;;;5112107;28;20039;-72
2022/01/05 07:34:08;;;;;;;5.38;1.30;;;5.30;99.90;;;;;;5125398;27;20038;-74
2022/01/05 07:36:34;;;;;;;7.68;1.52;;;5.20;99.90;;;;;;5132212;27;20483;-72
2022/01/05 07:39:03;;;;;;;8.98;1.50;;;5.30;99.90;;;;;;5133007;27;20038;-75
2022/01/05 07:41:29;;;;;;;9.43;1.80;;;5.90;99.90;;;;;;5132536;27;20133;-71
2022/01/05 07:43:54;;;;;;;12.45;1.63;;;6.00;99.90;;;;;;5116828;27;20038;-73
2022/01/05 07:46:20;;;;;;;10.15;1.42;;;5.70;99.90;;;;;;5131862;27;20180;-72
2022/01/05 07:48:46;;;;;;;8.82;1.65;;;5.40;99.90;;;;;;5132490;27;20031;-75
2022/01/05 07:51:12;;;;;;;5.93;1.40;;;5.80;99.90;;;;;;5115889;28;20406;-71
2022/01/05 07:53:38;;;;;;;10.27;1.50;;;6.00;99.90;;;;;;5113264;28;20038;-74
2022/01/05 07:56:04;;;;;;;12.57;2.25;;;6.00;99.90;;;;;;5083100;27;20474;-75
2022/01/05 07:58:30;;;;;;;7.18;1.45;;;5.50;99.90;;;;;;5110177;28;20039;-73
2022/01/05 08:00:56;;;;;;;10.70;1.85;;;5.80;99.90;;;;;;5112461;27;20047;-72
2022/01/05 08:03:22;;;;;;;8.50;1.38;;;5.90;99.90;;;;;;5098452;27;20137;-69
2022/01/05 08:05:50;;;;;;;8.98;1.70;;;5.50;99.90;;;;;;5094821;28;20430;-72
2022/01/05 08:08:16;;;;;;;7.57;1.42;;;6.10;99.90;;;;;;5110643;27;20129;-73
2022/01/05 08:10:42;;;;;;;6.95;1.80;;;5.90;99.90;;;;;;5099883;27;20099;-73
2022/01/05 08:13:08;;;;;;;7.30;1.75;;;6.00;99.90;;;;;;5114022;27;20034;-72
2022/01/05 08:15:34;;;;;;;9.82;1.75;;;5.90;99.90;;;;;;5096602;28;20070;-77
2022/01/05 08:18:00;;;;;;;12.30;2.10;;;6.40;99.90;;;;;;5098698;27;20073;-75
2022/01/05 08:20:26;;;;;;;5.57;1.48;;;6.40;99.90;;;;;;5072341;28;20511;-74
2022/01/05 08:22:52;;;;;;;8.02;1.17;;;6.20;99.90;;;;;;5105435;27;20506;-72
2022/01/05 08:25:20;;;;;;;9.77;1.30;;;6.40;99.90;;;;;;5126315;27;20042;-74
2022/01/05 08:27:47;;;;;;;3.88;0.80;;;6.00;99.90;;;;;;5119283;27;20133;-74
2022/01/05 08:30:23;;;;;;;8.88;1.30;;;6.00;99.90;;;;;;5136341;27;20068;-75
2022/01/05 08:32:53;;;;;;;4.35;1.15;;;5.90;99.90;;;;;;5119738;27;20035;-73
2022/01/05 08:35:22;;;;;;;10.13;1.40;;;6.30;99.90;;;;;;5119604;27;20082;-73
2022/01/05 08:37:48;;;;;;;7.93;1.30;;;6.30;99.90;;;;;;5136486;27;20049;-74
2022/01/05 08:40:16;;;;;;;3.55;1.23;;;6.20;99.90;;;;;;5120361;27;20030;-74
2022/01/05 08:42:42;;;;;;;3.78;1.15;;;6.40;99.90;;;;;;5137248;27;20042;-77
2022/01/05 08:45:09;;;;;;;6.85;1.67;;;6.00;99.90;;;;;;5118477;27;20386;-77
2022/01/05 08:47:35;;;;;;;10.65;1.58;;;6.00;99.90;;;;;;5119512;27;20538;-73
2022/01/05 08:50:04;;;;;;;11.50;1.92;;;6.90;99.90;;;;;;5137468;27;20034;-76
2022/01/05 08:52:30;;;;;;;7.43;1.55;;;6.20;99.90;;;;;;5076707;27;20042;-73
2022/01/05 08:54:56;;;;;;;9.85;1.80;;;6.40;99.90;;;;;;5136561;27;20042;-74
2022/01/05 08:57:22;;;;;;;10.80;1.90;;;6.50;99.90;;;;;;5118368;27;20378;-72
2022/01/05 08:59:51;;;;;;;12.73;2.50;;;6.20;99.90;;;;;;5116753;27;20042;-72
2022/01/05 09:02:18;;;;;;;9.93;2.20;;;6.30;99.90;;;;;;5116009;27;20035;-72
2022/01/05 09:04:44;;;;;;;7.82;1.88;;;6.60;99.90;;;;;;5115762;27;20058;-69
2022/01/05 09:07:10;;;;;;;13.02;2.15;;;6.70;99.90;;;;;;5115130;27;20035;-72
2022/01/05 09:09:37;;;;;;;14.18;2.17;;;6.20;99.90;;;;;;5102511;27;20074;-72
2022/01/05 09:12:03;;;;;;;14.77;1.85;;;6.10;99.90;;;;;;5128913;27;20047;-74
2022/01/05 09:14:29;;;;;;;11.77;3.50;;;6.30;99.90;;;;;;5129033;27;20047;-73
2022/01/05 09:16:55;;;;;;;11.00;2.05;;;6.40;99.90;;;;;;5131383;27;20579;-71
2022/01/05 09:19:21;;;;;;;18.33;2.45;;;6.10;99.90;;;;;;5096646;27;20502;-70
2022/01/05 09:21:49;;;;;;;12.32;2.28;;;6.40;99.90;;;;;;5110469;28;20131;-72
2022/01/05 09:24:18;;;;;;;12.88;2.30;;;6.30;99.90;;;;;;5109675;27;20553;-71
2022/01/05 09:26:44;;;;;;;12.23;2.15;;;6.00;99.90;;;;;;5079898;27;20070;-73
2022/01/05 09:29:10;;;;;;;16.55;2.58;;;6.00;99.90;;;;;;5130524;27;20389;-69
2022/01/05 09:31:36;;;;;;;12.80;2.00;;;6.00;99.90;;;;;;5106278;27;20773;-75
2022/01/05 09:34:02;;;;;;;10.93;2.00;;;6.20;99.90;;;;;;5079233;27;20100;-70
2022/01/05 09:36:40;;;;;;;11.00;1.58;;;6.70;99.90;;;;;;5113538;27;20656;-71
2022/01/05 09:41:56;;;;;;;11.98;3.53;;;6.60;99.90;;;;;;5128703;27;20066;-71
2022/01/05 09:44:32;;;;;;;9.30;1.50;;;7.10;99.90;;;;;;5113135;27;20038;-70
2022/01/05 09:47:09;;;;;;;13.02;2.60;;;7.10;99.90;;;;;;5132953;27;20117;-72
2022/01/05 09:49:39;;;;;;;16.52;2.00;;;7.20;99.90;;;;;;5130345;27;20043;-71
2022/01/05 09:52:10;;;;;;;13.05;2.50;;;7.20;99.90;;;;;;5130280;27;20035;-71
2022/01/05 09:54:42;;;;;;;12.52;2.30;;;7.50;99.90;;;;;;5112807;27;20058;-73
2022/01/05 09:57:09;;;;;;;10.77;2.10;;;7.50;99.90;;;;;;5113757;27;20391;-72
2022/01/05 09:59:35;;;;;;;11.32;2.20;;;7.30;99.90;;;;;;5132598;27;20110;-72
2022/01/05 10:02:03;;;;;;;12.70;2.53;;;6.90;99.90;;;;;;5108896;27;20747;-74
2022/01/05 10:04:30;;;;;;;11.27;2.03;;;7.10;99.90;;;;;;5114162;27;20031;-69
2022/01/05 10:06:56;;;;;;;12.43;2.13;;;6.90;99.90;;;;;;5111751;27;20072;-69
2022/01/05 10:09:22;;;;;;;13.75;2.85;;;7.20;99.90;;;;;;5123497;27;20043;-72
2022/01/05 10:11:47;;;;;;;9.23;2.60;;;7.30;99.90;;;;;;5123594;27;20046;-72
2022/01/05 10:14:13;;;;;;;11.30;1.98;;;7.10;99.90;;;;;;5110010;27;20091;-72
2022/01/05 10:17:01;;;;;;;13.32;1.73;;;6.90;99.90;;;;;;5094092;27;20658;-71
2022/01/05 10:19:26;;;;;;;16.33;2.72;;;7.30;99.90;;;;;;5089924;27;20027;-68
2022/01/05 10:21:53;;;;;;;14.80;2.60;;;7.10;99.90;;;;;;5109866;27;20079;-71
2022/01/05 10:24:57;;;;;;;17.95;2.97;;;7.20;99.90;;;;;;5110379;27;20043;-71
2022/01/05 10:27:26;;;;;;;14.30;2.70;;;7.30;99.90;;;;;;5117181;27;20135;-71
2022/01/05 10:29:55;;;;;;;14.23;2.55;;;7.30;99.90;;;;;;5109878;27;20584;-72
2022/01/05 10:32:21;;;;;;;11.25;2.22;;;7.20;99.90;;;;;;5126301;27;20050;-69
2022/01/05 10:35:01;;;;;;;15.95;3.65;;;7.10;99.90;;;;;;5114210;27;20149;-70
2022/01/05 10:37:27;;;;;;;16.38;2.58;;;7.10;99.90;;;;;;5109967;27;20126;-68
2022/01/05 10:40:14;;;;;;;10.15;2.30;;;7.30;99.90;;;;;;5127190;27;20119;-69
2022/01/05 10:42:42;;;;;;;13.02;2.45;;;7.10;99.90;;;;;;5108001;27;20047;-70
2022/01/05 10:45:11;;;;;;;14.57;3.90;;;7.50;99.90;;;;;;5125670;27;20038;-69
2022/01/05 10:47:37;;;;;;;11.15;2.05;;;7.50;99.90;;;;;;5109442;27;20125;-70
2022/01/05 10:50:06;;;;;;;12.77;1.83;;;7.70;99.90;;;;;;5106793;27;20042;-72
2022/01/05 10:52:34;;;;;;;13.52;3.33;;;7.90;99.90;;;;;;5126870;27;20103;-73
2022/01/05 10:55:15;;;;;;;14.07;2.28;;;7.80;99.90;;;;;;5110155;27;20082;-74
2022/01/05 10:58:02;;;;;;;10.43;2.13;;;7.60;99.90;;;;;;5126205;27;20042;-73
2022/01/05 11:00:44;;;;;;;10.77;2.20;;;7.50;99.90;;;;;;5093961;27;20061;-74
2022/01/05 11:03:33;;;;;;;19.52;3.47;;;7.40;99.90;;;;;;5108345;27;20047;-72
2022/01/05 11:06:16;;;;;;;16.05;3.42;;;7.80;99.90;;;;;;5126776;27;20085;-73
2022/01/05 11:08:55;;;;;;;14.00;4.15;;;7.40;99.90;;;;;;5095479;27;20074;-73
2022/01/05 11:11:41;;;;;;;21.48;3.15;;;7.70;99.90;;;;;;5108820;27;20687;-72
2022/01/05 11:14:12;;;;;;;20.58;3.00;;;7.60;99.90;;;;;;5109325;27;20034;-72
2022/01/05 11:16:41;;;;;;;16.10;3.42;;;7.80;99.90;;;;;;5119061;27;20130;-74
2022/01/05 11:19:29;;;;;;;15.93;2.50;;;8.00;99.90;;;;;;5138027;27;20058;-74
2022/01/05 11:22:14;;;;;;;15.70;3.28;;;7.90;99.90;;;;;;5105123;27;20047;-74
2022/01/05 11:24:41;;;;;;;;;;;8.10;99.90;;;;;;5113194;27;20046;-74
2022/01/05 11:27:10;;;;;;;14.88;2.53;;;8.10;99.90;;;;;;5108110;27;19967;-71
2022/01/05 11:29:36;;;;;;;17.25;2.78;;;7.90;99.90;;;;;;5128582;27;20038;-71
2022/01/05 11:32:09;;;;;;;19.05;3.80;;;7.50;99.90;;;;;;5107387;27;20508;-72
2022/01/05 11:34:35;;;;;;;16.35;2.65;;;7.90;99.90;;;;;;5126302;27;20038;-75
2022/01/05 11:37:01;;;;;;;16.83;3.17;;;7.90;99.90;;;;;;5105455;28;20100;-75
2022/01/05 11:39:30;;;;;;;13.95;2.92;;;8.10;99.90;;;;;;5099919;27;20125;-74
2022/01/05 11:41:58;;;;;;;17.10;3.10;;;7.90;99.90;;;;;;5125776;27;20046;-73
2022/01/05 11:44:28;;;;;;;20.25;3.38;;;7.70;99.90;;;;;;5126020;27;20066;-71
2022/01/05 11:46:54;;;;;;;16.05;3.30;;;7.80;99.90;;;;;;5126380;27;20050;-73
2022/01/05 11:49:28;;;;;;;17.90;2.78;;;8.10;99.90;;;;;;5109233;27;20111;-74
2022/01/05 11:51:56;;;;;;;18.85;3.10;;;8.00;99.90;;;;;;5126153;27;20053;-74
2022/01/05 11:54:32;;;;;;;19.98;3.38;;;7.90;99.90;;;;;;5125258;27;20795;-72
2022/01/05 11:57:10;;;;;;;13.05;2.13;;;7.80;99.90;;;;;;5110605;27;20069;-73
2022/01/05 11:59:40;;;;;;;18.13;3.45;;;7.70;99.90;;;;;;5111826;27;20035;-72
2022/01/05 12:02:13;;;;;;;11.15;2.33;;;7.90;99.90;;;;;;5120823;27;20043;-72
2022/01/05 12:04:57;;;;;;;15.98;3.10;;;7.80;99.90;;;;;;5128423;27;20643;-69
2022/01/05 12:07:43;;;;;;;11.38;2.95;;;7.60;99.90;;;;;;5126596;27;20050;-71
2022/01/05 12:10:21;;;;;;;14.45;3.55;;;7.70;99.90;;;;;;5112057;27;20090;-72
2022/01/05 12:13:04;;;;;;;11.57;2.05;;;7.80;99.90;;;;;;5129747;27;20047;-72
2022/01/05 12:15:43;;;;;;;12.48;2.30;;;7.80;99.90;;;;;;5129047;27;20045;-73
2022/01/05 12:18:22;;;;;;;8.02;1.90;;;7.80;99.90;;;;;;5107272;27;20042;-71
2022/01/05 12:20:48;;;;;;;15.32;2.65;;;7.70;99.90;;;;;;5129424;27;20035;-70
2022/01/05 12:23:30;;;;;;;7.80;1.95;;;7.60;99.90;;;;;;5112026;27;20039;-72
2022/01/05 12:26:02;;;;;;;8.10;2.00;;;7.60;99.90;;;;;;5112189;27;20633;-73
2022/01/05 12:28:31;;;;;;;;;;;7.50;99.90;;;;;;5112901;27;20067;-70
2022/01/05 12:31:00;;;;;;;5.57;1.77;;;7.40;99.90;;;;;;5112398;27;20005;-70
2022/01/05 12:33:40;;;;;;;8.27;1.77;;;7.30;99.90;;;;;;5111651;27;20038;-71
2022/01/05 12:36:05;;;;;;;12.63;1.70;;;7.30;99.90;;;;;;5112607;27;20043;-75
2022/01/05 12:38:38;;;;;;;7.72;1.75;;;7.30;99.90;;;;;;5112302;27;20046;-73
2022/01/05 12:41:24;;;;;;;9.60;1.83;;;7.20;99.90;;;;;;5130293;27;20117;-70
2022/01/05 12:43:50;;;;;;;13.52;2.75;;;7.20;99.90;;;;;;5111992;27;20042;-73
2022/01/05 12:46:33;;;;;;;8.43;2.08;;;7.30;99.90;;;;;;5112647;27;20050;-71
2022/01/05 12:49:02;;;;;;;13.30;1.88;;;7.50;99.90;;;;;;5129048;27;20070;-71
2022/01/05 12:51:39;;;;;;;10.95;3.17;;;7.30;99.90;;;;;;5111627;27;20041;-71
2022/01/05 12:54:10;;;;;;;13.25;2.35;;;7.30;99.90;;;;;;5129286;27;20083;-73
2022/01/05 12:56:52;;;;;;;9.75;2.83;;;7.30;99.90;;;;;;5128116;27;20721;-72
2022/01/05 12:59:29;;;;;;;14.95;2.92;;;7.20;99.90;;;;;;5108514;27;20154;-73